sensor_id;sensor_type;location;lat;lon;timestamp;temperature;humidity
67942;SHT31;54731;42.600;23.476;2022-11-20T00:00:57;13.91;70.72
67942;SHT31;54731;42.600;23.476;2022-11-20T00:03:28;13.87;70.52
67942;SHT31;54731;42.600;23.476;2022-11-20T00:05:53;13.86;70.72
67942;SHT31;54731;42.600;23.476;2022-11-20T00:08:19;13.83;70.90
67942;SHT31;54731;42.600;23.476;2022-11-20T00:10:44;13.77;71.24
67942;SHT31;54731;42.600;23.476;2022-11-20T00:13:09;13.73;70.47
67942;SHT31;54731;42.600;23.476;2022-11-20T00:15:35;13.80;69.70
67942;SHT31;54731;42.600;23.476;2022-11-20T00:18:00;13.80;69.96
67942;SHT31;54731;42.600;23.476;2022-11-20T00:20:25;13.77;70.83
67942;SHT31;54731;42.600;23.476;2022-11-20T00:22:51;13.77;70.92
67942;SHT31;54731;42.600;23.476;2022-11-20T00:25:16;13.77;70.76
67942;SHT31;54731;42.600;23.476;2022-11-20T00:27:42;13.74;70.97
67942;SHT31;54731;42.600;23.476;2022-11-20T00:30:08;13.65;71.25
67942;SHT31;54731;42.600;23.476;2022-11-20T00:32:33;13.59;71.78
67942;SHT31;54731;42.600;23.476;2022-11-20T00:34:58;13.56;71.76
67942;SHT31;54731;42.600;23.476;2022-11-20T00:37:24;13.58;70.75
67942;SHT31;54731;42.600;23.476;2022-11-20T00:39:49;13.65;70.53
67942;SHT31;54731;42.600;23.476;2022-11-20T00:42:14;13.74;69.92
67942;SHT31;54731;42.600;23.476;2022-11-20T00:44:40;13.76;69.83
67942;SHT31;54731;42.600;23.476;2022-11-20T00:47:05;13.81;69.74
67942;SHT31;54731;42.600;23.476;2022-11-20T00:49:30;13.79;69.98
67942;SHT31;54731;42.600;23.476;2022-11-20T00:51:56;13.86;69.81
67942;SHT31;54731;42.600;23.476;2022-11-20T00:54:21;13.80;70.01
67942;SHT31;54731;42.600;23.476;2022-11-20T00:56:46;13.81;69.47
67942;SHT31;54731;42.600;23.476;2022-11-20T00:59:12;13.94;68.56
67942;SHT31;54731;42.600;23.476;2022-11-20T01:01:37;14.03;68.13
67942;SHT31;54731;42.600;23.476;2022-11-20T01:04:03;14.01;68.35
67942;SHT31;54731;42.600;23.476;2022-11-20T01:06:31;14.01;68.44
67942;SHT31;54731;42.600;23.476;2022-11-20T01:08:58;14.00;69.03
67942;SHT31;54731;42.600;23.476;2022-11-20T01:11:29;13.97;68.94
67942;SHT31;54731;42.600;23.476;2022-11-20T01:13:56;13.97;69.05
67942;SHT31;54731;42.600;23.476;2022-11-20T01:16:27;13.99;69.10
67942;SHT31;54731;42.600;23.476;2022-11-20T01:18:55;13.93;69.53
67942;SHT31;54731;42.600;23.476;2022-11-20T01:21:23;14.00;68.75
67942;SHT31;54731;42.600;23.476;2022-11-20T01:23:50;14.00;68.17
67942;SHT31;54731;42.600;23.476;2022-11-20T01:26:19;13.97;69.00
67942;SHT31;54731;42.600;23.476;2022-11-20T01:28:44;13.99;68.54
67942;SHT31;54731;42.600;23.476;2022-11-20T01:31:12;13.87;70.90
67942;SHT31;54731;42.600;23.476;2022-11-20T01:33:39;13.87;70.80
67942;SHT31;54731;42.600;23.476;2022-11-20T01:36:06;13.91;69.45
67942;SHT31;54731;42.600;23.476;2022-11-20T01:38:31;13.99;69.06
67942;SHT31;54731;42.600;23.476;2022-11-20T01:40:57;13.89;69.54
67942;SHT31;54731;42.600;23.476;2022-11-20T01:43:23;13.90;69.61
67942;SHT31;54731;42.600;23.476;2022-11-20T01:45:59;13.99;68.66
67942;SHT31;54731;42.600;23.476;2022-11-20T01:48:27;13.96;68.81
67942;SHT31;54731;42.600;23.476;2022-11-20T01:50:53;13.86;68.91
67942;SHT31;54731;42.600;23.476;2022-11-20T01:53:25;13.90;68.73
67942;SHT31;54731;42.600;23.476;2022-11-20T01:55:55;13.84;69.55
67942;SHT31;54731;42.600;23.476;2022-11-20T01:58:28;13.80;69.44
67942;SHT31;54731;42.600;23.476;2022-11-20T02:00:56;13.81;68.51
67942;SHT31;54731;42.600;23.476;2022-11-20T02:03:21;13.87;68.14
67942;SHT31;54731;42.600;23.476;2022-11-20T02:05:57;13.91;68.00
67942;SHT31;54731;42.600;23.476;2022-11-20T02:08:25;13.96;67.82
67942;SHT31;54731;42.600;23.476;2022-11-20T02:10:50;14.04;67.56
67942;SHT31;54731;42.600;23.476;2022-11-20T02:13:16;14.06;66.74
67942;SHT31;54731;42.600;23.476;2022-11-20T02:15:42;14.11;67.00
67942;SHT31;54731;42.600;23.476;2022-11-20T02:18:07;14.14;66.41
67942;SHT31;54731;42.600;23.476;2022-11-20T02:20:34;14.18;66.17
67942;SHT31;54731;42.600;23.476;2022-11-20T02:23:12;14.17;66.53
67942;SHT31;54731;42.600;23.476;2022-11-20T02:25:40;14.17;66.73
67942;SHT31;54731;42.600;23.476;2022-11-20T02:28:07;14.14;67.52
67942;SHT31;54731;42.600;23.476;2022-11-20T02:30:32;14.18;67.10
67942;SHT31;54731;42.600;23.476;2022-11-20T02:32:58;14.16;67.82
67942;SHT31;54731;42.600;23.476;2022-11-20T02:37:51;14.06;68.53
67942;SHT31;54731;42.600;23.476;2022-11-20T02:40:18;14.04;68.08
67942;SHT31;54731;42.600;23.476;2022-11-20T02:42:43;14.07;68.34
67942;SHT31;54731;42.600;23.476;2022-11-20T02:45:09;14.10;66.72
67942;SHT31;54731;42.600;23.476;2022-11-20T02:47:34;14.18;66.56
67942;SHT31;54731;42.600;23.476;2022-11-20T02:49:59;14.37;65.66
67942;SHT31;54731;42.600;23.476;2022-11-20T02:52:25;14.49;64.03
67942;SHT31;54731;42.600;23.476;2022-11-20T02:54:51;14.71;63.39
67942;SHT31;54731;42.600;23.476;2022-11-20T02:57:16;14.88;63.08
67942;SHT31;54731;42.600;23.476;2022-11-20T02:59:41;15.00;62.39
67942;SHT31;54731;42.600;23.476;2022-11-20T03:02:07;15.26;62.01
67942;SHT31;54731;42.600;23.476;2022-11-20T03:04:32;15.39;61.27
67942;SHT31;54731;42.600;23.476;2022-11-20T03:06:57;15.43;61.15
67942;SHT31;54731;42.600;23.476;2022-11-20T03:09:23;15.49;60.99
67942;SHT31;54731;42.600;23.476;2022-11-20T03:11:48;15.87;58.98
67942;SHT31;54731;42.600;23.476;2022-11-20T03:14:13;16.14;58.13
67942;SHT31;54731;42.600;23.476;2022-11-20T03:16:39;16.12;58.19
67942;SHT31;54731;42.600;23.476;2022-11-20T03:19:04;16.15;58.80
67942;SHT31;54731;42.600;23.476;2022-11-20T03:21:29;16.04;59.06
67942;SHT31;54731;42.600;23.476;2022-11-20T03:23:55;15.96;59.70
67942;SHT31;54731;42.600;23.476;2022-11-20T03:26:23;15.97;59.48
67942;SHT31;54731;42.600;23.476;2022-11-20T03:28:53;15.87;60.05
67942;SHT31;54731;42.600;23.476;2022-11-20T03:31:33;16.02;59.17
67942;SHT31;54731;42.600;23.476;2022-11-20T03:33:59;16.08;59.25
67942;SHT31;54731;42.600;23.476;2022-11-20T03:36:25;16.20;59.02
67942;SHT31;54731;42.600;23.476;2022-11-20T03:38:53;16.45;57.91
67942;SHT31;54731;42.600;23.476;2022-11-20T03:41:21;16.47;58.33
67942;SHT31;54731;42.600;23.476;2022-11-20T03:44:01;16.42;58.07
67942;SHT31;54731;42.600;23.476;2022-11-20T03:46:27;16.42;58.44
67942;SHT31;54731;42.600;23.476;2022-11-20T03:48:53;16.29;59.03
67942;SHT31;54731;42.600;23.476;2022-11-20T03:51:21;16.20;59.57
67942;SHT31;54731;42.600;23.476;2022-11-20T03:53:48;16.14;59.35
67942;SHT31;54731;42.600;23.476;2022-11-20T03:56:16;16.12;59.03
67942;SHT31;54731;42.600;23.476;2022-11-20T03:58:42;16.24;57.85
67942;SHT31;54731;42.600;23.476;2022-11-20T04:01:16;16.18;58.62
67942;SHT31;54731;42.600;23.476;2022-11-20T04:03:42;16.15;59.00
67942;SHT31;54731;42.600;23.476;2022-11-20T04:06:15;16.08;59.79
67942;SHT31;54731;42.600;23.476;2022-11-20T04:08:41;15.98;60.15
67942;SHT31;54731;42.600;23.476;2022-11-20T04:11:13;15.94;60.18
67942;SHT31;54731;42.600;23.476;2022-11-20T04:13:40;15.98;59.74
67942;SHT31;54731;42.600;23.476;2022-11-20T04:16:06;15.94;59.84
67942;SHT31;54731;42.600;23.476;2022-11-20T04:18:32;16.07;59.04
67942;SHT31;54731;42.600;23.476;2022-11-20T04:20:58;16.11;58.95
67942;SHT31;54731;42.600;23.476;2022-11-20T04:23:24;16.20;59.16
67942;SHT31;54731;42.600;23.476;2022-11-20T04:25:49;16.14;59.28
67942;SHT31;54731;42.600;23.476;2022-11-20T04:28:15;16.21;59.11
67942;SHT31;54731;42.600;23.476;2022-11-20T04:30:40;16.21;59.22
67942;SHT31;54731;42.600;23.476;2022-11-20T04:33:06;16.12;59.83
67942;SHT31;54731;42.600;23.476;2022-11-20T04:35:34;16.17;60.65
67942;SHT31;54731;42.600;23.476;2022-11-20T04:37:59;16.05;61.84
67942;SHT31;54731;42.600;23.476;2022-11-20T04:40:25;15.98;61.78
67942;SHT31;54731;42.600;23.476;2022-11-20T04:42:50;16.05;61.99
67942;SHT31;54731;42.600;23.476;2022-11-20T04:45:15;16.07;62.26
67942;SHT31;54731;42.600;23.476;2022-11-20T04:47:41;16.04;61.79
67942;SHT31;54731;42.600;23.476;2022-11-20T04:50:06;15.96;62.91
67942;SHT31;54731;42.600;23.476;2022-11-20T04:52:31;15.94;62.08
67942;SHT31;54731;42.600;23.476;2022-11-20T04:54:57;15.97;62.63
67942;SHT31;54731;42.600;23.476;2022-11-20T04:57:22;15.98;62.02
67942;SHT31;54731;42.600;23.476;2022-11-20T04:59:47;15.94;62.43
67942;SHT31;54731;42.600;23.476;2022-11-20T05:02:13;15.89;62.93
67942;SHT31;54731;42.600;23.476;2022-11-20T05:04:38;15.83;63.47
67942;SHT31;54731;42.600;23.476;2022-11-20T05:07:03;15.67;65.07
67942;SHT31;54731;42.600;23.476;2022-11-20T05:09:29;15.60;66.03
67942;SHT31;54731;42.600;23.476;2022-11-20T05:11:55;15.64;65.31
67942;SHT31;54731;42.600;23.476;2022-11-20T05:14:20;15.69;66.46
67942;SHT31;54731;42.600;23.476;2022-11-20T05:16:45;15.70;68.59
67942;SHT31;54731;42.600;23.476;2022-11-20T05:19:11;15.69;69.57
67942;SHT31;54731;42.600;23.476;2022-11-20T05:21:36;15.46;71.08
67942;SHT31;54731;42.600;23.476;2022-11-20T05:24:01;15.35;71.12
67942;SHT31;54731;42.600;23.476;2022-11-20T05:26:27;15.19;72.43
67942;SHT31;54731;42.600;23.476;2022-11-20T05:28:52;15.15;73.44
67942;SHT31;54731;42.600;23.476;2022-11-20T05:31:22;15.10;73.12
67942;SHT31;54731;42.600;23.476;2022-11-20T05:33:48;14.96;74.26
67942;SHT31;54731;42.600;23.476;2022-11-20T05:36:14;14.91;74.57
67942;SHT31;54731;42.600;23.476;2022-11-20T05:38:40;14.84;74.85
67942;SHT31;54731;42.600;23.476;2022-11-20T05:41:08;14.74;74.63
67942;SHT31;54731;42.600;23.476;2022-11-20T05:43:38;14.71;74.55
67942;SHT31;54731;42.600;23.476;2022-11-20T05:46:05;14.72;74.32
67942;SHT31;54731;42.600;23.476;2022-11-20T05:48:31;14.78;74.71
67942;SHT31;54731;42.600;23.476;2022-11-20T05:50:57;14.79;75.86
67942;SHT31;54731;42.600;23.476;2022-11-20T05:53:23;14.65;77.15
67942;SHT31;54731;42.600;23.476;2022-11-20T05:55:59;14.55;78.31
67942;SHT31;54731;42.600;23.476;2022-11-20T05:58:24;14.52;78.41
67942;SHT31;54731;42.600;23.476;2022-11-20T06:00:50;14.45;78.18
67942;SHT31;54731;42.600;23.476;2022-11-20T06:03:15;14.48;78.10
67942;SHT31;54731;42.600;23.476;2022-11-20T06:05:41;14.48;78.23
67942;SHT31;54731;42.600;23.476;2022-11-20T06:08:06;14.35;78.90
67942;SHT31;54731;42.600;23.476;2022-11-20T06:10:31;14.28;78.94
67942;SHT31;54731;42.600;23.476;2022-11-20T06:12:57;14.24;79.38
67942;SHT31;54731;42.600;23.476;2022-11-20T06:15:23;14.25;79.38
67942;SHT31;54731;42.600;23.476;2022-11-20T06:17:54;14.20;79.81
67942;SHT31;54731;42.600;23.476;2022-11-20T06:20:21;14.14;78.90
67942;SHT31;54731;42.600;23.476;2022-11-20T06:22:46;14.14;78.28
67942;SHT31;54731;42.600;23.476;2022-11-20T06:25:12;14.20;77.19
67942;SHT31;54731;42.600;23.476;2022-11-20T06:27:37;14.14;76.25
67942;SHT31;54731;42.600;23.476;2022-11-20T06:30:03;14.23;74.94
67942;SHT31;54731;42.600;23.476;2022-11-20T06:32:29;14.33;74.41
67942;SHT31;54731;42.600;23.476;2022-11-20T06:34:54;14.37;73.74
67942;SHT31;54731;42.600;23.476;2022-11-20T06:37:19;14.41;74.75
67942;SHT31;54731;42.600;23.476;2022-11-20T06:39:45;14.41;74.94
67942;SHT31;54731;42.600;23.476;2022-11-20T06:42:10;14.45;74.76
67942;SHT31;54731;42.600;23.476;2022-11-20T06:44:35;14.51;74.47
67942;SHT31;54731;42.600;23.476;2022-11-20T06:47:01;14.54;74.71
67942;SHT31;54731;42.600;23.476;2022-11-20T06:49:26;14.55;75.43
67942;SHT31;54731;42.600;23.476;2022-11-20T06:51:51;14.60;73.85
67942;SHT31;54731;42.600;23.476;2022-11-20T06:54:16;14.60;73.85
67942;SHT31;54731;42.600;23.476;2022-11-20T06:56:42;14.64;71.74
67942;SHT31;54731;42.600;23.476;2022-11-20T06:59:07;14.65;71.16
67942;SHT31;54731;42.600;23.476;2022-11-20T07:01:33;14.74;70.76
67942;SHT31;54731;42.600;23.476;2022-11-20T07:03:58;14.88;70.03
67942;SHT31;54731;42.600;23.476;2022-11-20T07:06:23;14.88;70.97
67942;SHT31;54731;42.600;23.476;2022-11-20T07:08:50;14.89;70.29
67942;SHT31;54731;42.600;23.476;2022-11-20T07:11:16;14.95;70.39
67942;SHT31;54731;42.600;23.476;2022-11-20T07:13:41;15.00;70.82
67942;SHT31;54731;42.600;23.476;2022-11-20T07:16:07;15.05;71.78
67942;SHT31;54731;42.600;23.476;2022-11-20T07:18:33;15.12;71.84
67942;SHT31;54731;42.600;23.476;2022-11-20T07:21:06;15.15;70.53
67942;SHT31;54731;42.600;23.476;2022-11-20T07:23:32;15.23;68.78
67942;SHT31;54731;42.600;23.476;2022-11-20T07:25:57;15.23;69.63
67942;SHT31;54731;42.600;23.476;2022-11-20T07:28:23;15.19;71.76
67942;SHT31;54731;42.600;23.476;2022-11-20T07:30:52;15.22;67.66
67942;SHT31;54731;42.600;23.476;2022-11-20T07:33:18;15.32;66.08
67942;SHT31;54731;42.600;23.476;2022-11-20T07:35:44;15.37;67.56
67942;SHT31;54731;42.600;23.476;2022-11-20T07:38:09;15.36;67.61
67942;SHT31;54731;42.600;23.476;2022-11-20T07:40:34;15.49;64.26
67942;SHT31;54731;42.600;23.476;2022-11-20T07:42:59;15.61;64.28
67942;SHT31;54731;42.600;23.476;2022-11-20T07:45:25;15.69;63.95
67942;SHT31;54731;42.600;23.476;2022-11-20T07:47:50;15.76;64.59
67942;SHT31;54731;42.600;23.476;2022-11-20T07:50:16;15.79;66.29
67942;SHT31;54731;42.600;23.476;2022-11-20T07:52:42;15.80;66.34
67942;SHT31;54731;42.600;23.476;2022-11-20T07:55:08;15.80;66.90
67942;SHT31;54731;42.600;23.476;2022-11-20T07:57:34;15.80;67.38
67942;SHT31;54731;42.600;23.476;2022-11-20T07:59:59;15.81;68.67
67942;SHT31;54731;42.600;23.476;2022-11-20T08:02:25;15.83;68.22
67942;SHT31;54731;42.600;23.476;2022-11-20T08:04:51;15.89;66.93
67942;SHT31;54731;42.600;23.476;2022-11-20T08:07:16;15.86;67.00
67942;SHT31;54731;42.600;23.476;2022-11-20T08:09:42;15.89;67.37
67942;SHT31;54731;42.600;23.476;2022-11-20T08:12:07;15.91;67.70
67942;SHT31;54731;42.600;23.476;2022-11-20T08:14:35;15.86;67.79
67942;SHT31;54731;42.600;23.476;2022-11-20T08:17:00;15.87;68.24
67942;SHT31;54731;42.600;23.476;2022-11-20T08:19:26;15.87;67.54
67942;SHT31;54731;42.600;23.476;2022-11-20T08:21:51;15.81;67.80
67942;SHT31;54731;42.600;23.476;2022-11-20T08:24:16;15.83;68.66
67942;SHT31;54731;42.600;23.476;2022-11-20T08:26:42;15.81;68.46
67942;SHT31;54731;42.600;23.476;2022-11-20T08:29:07;15.83;67.05
67942;SHT31;54731;42.600;23.476;2022-11-20T08:31:33;15.89;66.30
67942;SHT31;54731;42.600;23.476;2022-11-20T08:33:58;15.94;66.17
67942;SHT31;54731;42.600;23.476;2022-11-20T08:36:24;16.02;66.18
67942;SHT31;54731;42.600;23.476;2022-11-20T08:38:51;16.05;66.26
67942;SHT31;54731;42.600;23.476;2022-11-20T08:41:17;16.10;67.12
67942;SHT31;54731;42.600;23.476;2022-11-20T08:43:42;16.15;65.94
67942;SHT31;54731;42.600;23.476;2022-11-20T08:46:08;16.25;64.76
67942;SHT31;54731;42.600;23.476;2022-11-20T08:48:33;16.25;65.64
67942;SHT31;54731;42.600;23.476;2022-11-20T08:50:59;16.25;66.90
67942;SHT31;54731;42.600;23.476;2022-11-20T08:53:24;16.24;64.29
67942;SHT31;54731;42.600;23.476;2022-11-20T08:55:50;16.31;64.12
67942;SHT31;54731;42.600;23.476;2022-11-20T08:58:15;16.29;64.88
67942;SHT31;54731;42.600;23.476;2022-11-20T09:00:40;16.29;64.77
67942;SHT31;54731;42.600;23.476;2022-11-20T09:03:06;16.42;64.23
67942;SHT31;54731;42.600;23.476;2022-11-20T09:05:31;16.45;64.27
67942;SHT31;54731;42.600;23.476;2022-11-20T09:07:57;16.36;65.44
67942;SHT31;54731;42.600;23.476;2022-11-20T09:10:23;16.35;65.44
67942;SHT31;54731;42.600;23.476;2022-11-20T09:12:49;16.32;65.87
67942;SHT31;54731;42.600;23.476;2022-11-20T09:15:14;16.34;66.29
67942;SHT31;54731;42.600;23.476;2022-11-20T09:17:39;16.38;67.80
67942;SHT31;54731;42.600;23.476;2022-11-20T09:20:05;16.34;68.22
67942;SHT31;54731;42.600;23.476;2022-11-20T09:22:30;16.28;68.68
67942;SHT31;54731;42.600;23.476;2022-11-20T09:24:56;16.25;67.93
67942;SHT31;54731;42.600;23.476;2022-11-20T09:27:21;16.28;68.03
67942;SHT31;54731;42.600;23.476;2022-11-20T09:29:46;16.29;69.30
67942;SHT31;54731;42.600;23.476;2022-11-20T09:32:11;16.22;71.44
67942;SHT31;54731;42.600;23.476;2022-11-20T09:34:37;16.21;71.18
67942;SHT31;54731;42.600;23.476;2022-11-20T09:37:02;16.17;71.09
67942;SHT31;54731;42.600;23.476;2022-11-20T09:39:27;16.17;71.18
67942;SHT31;54731;42.600;23.476;2022-11-20T09:42:04;16.20;71.05
67942;SHT31;54731;42.600;23.476;2022-11-20T09:44:49;16.20;70.94
67942;SHT31;54731;42.600;23.476;2022-11-20T09:47:31;16.21;71.32
67942;SHT31;54731;42.600;23.476;2022-11-20T09:55:16;16.17;71.22
67942;SHT31;54731;42.600;23.476;2022-11-20T09:57:47;16.22;71.07
67942;SHT31;54731;42.600;23.476;2022-11-20T10:00:14;16.15;71.52
67942;SHT31;54731;42.600;23.476;2022-11-20T10:02:53;16.12;69.80
67942;SHT31;54731;42.600;23.476;2022-11-20T10:05:27;16.18;70.53
67942;SHT31;54731;42.600;23.476;2022-11-20T10:08:18;16.04;72.54
67942;SHT31;54731;42.600;23.476;2022-11-20T10:10:47;16.02;72.52
67942;SHT31;54731;42.600;23.476;2022-11-20T10:21:13;15.46;75.85
67942;SHT31;54731;42.600;23.476;2022-11-20T10:24:02;15.43;75.83
67942;SHT31;54731;42.600;23.476;2022-11-20T10:26:49;15.56;75.90
67942;SHT31;54731;42.600;23.476;2022-11-20T10:29:18;15.53;75.78
67942;SHT31;54731;42.600;23.476;2022-11-20T10:31:48;15.49;75.74
67942;SHT31;54731;42.600;23.476;2022-11-20T10:34:23;15.37;76.01
67942;SHT31;54731;42.600;23.476;2022-11-20T10:36:57;15.32;76.51
67942;SHT31;54731;42.600;23.476;2022-11-20T10:39:38;15.18;76.42
67942;SHT31;54731;42.600;23.476;2022-11-20T10:42:11;15.00;77.09
67942;SHT31;54731;42.600;23.476;2022-11-20T10:44:46;14.93;76.94
67942;SHT31;54731;42.600;23.476;2022-11-20T10:47:14;14.95;76.97
67942;SHT31;54731;42.600;23.476;2022-11-20T10:49:41;14.99;76.66
67942;SHT31;54731;42.600;23.476;2022-11-20T10:52:19;14.96;76.80
67942;SHT31;54731;42.600;23.476;2022-11-20T10:58:00;14.92;75.89
67942;SHT31;54731;42.600;23.476;2022-11-20T11:00:31;15.03;75.81
67942;SHT31;54731;42.600;23.476;2022-11-20T11:02:56;15.09;75.64
67942;SHT31;54731;42.600;23.476;2022-11-20T11:07:58;15.27;74.88
67942;SHT31;54731;42.600;23.476;2022-11-20T11:10:30;15.26;74.42
67942;SHT31;54731;42.600;23.476;2022-11-20T11:12:58;15.26;74.23
67942;SHT31;54731;42.600;23.476;2022-11-20T11:15:39;15.39;74.29
67942;SHT31;54731;42.600;23.476;2022-11-20T11:18:05;15.37;74.30
67942;SHT31;54731;42.600;23.476;2022-11-20T11:20:30;15.42;74.58
67942;SHT31;54731;42.600;23.476;2022-11-20T11:22:57;15.44;74.70
67942;SHT31;54731;42.600;23.476;2022-11-20T11:28:00;15.49;75.22
67942;SHT31;54731;42.600;23.476;2022-11-20T11:30:27;15.37;75.59
67942;SHT31;54731;42.600;23.476;2022-11-20T11:33:08;15.16;77.28
67942;SHT31;54731;42.600;23.476;2022-11-20T11:35:43;14.88;78.71
67942;SHT31;54731;42.600;23.476;2022-11-20T11:38:18;14.88;79.22
67942;SHT31;54731;42.600;23.476;2022-11-20T11:40:46;14.93;79.11
67942;SHT31;54731;42.600;23.476;2022-11-20T11:43:21;14.81;78.89
67942;SHT31;54731;42.600;23.476;2022-11-20T11:45:53;14.64;79.87
67942;SHT31;54731;42.600;23.476;2022-11-20T11:48:19;14.62;80.05
67942;SHT31;54731;42.600;23.476;2022-11-20T11:50:49;14.61;80.56
67942;SHT31;54731;42.600;23.476;2022-11-20T11:53:14;14.61;80.35
67942;SHT31;54731;42.600;23.476;2022-11-20T11:58:09;14.48;77.17
67942;SHT31;54731;42.600;23.476;2022-11-20T12:00:39;14.40;73.63
67942;SHT31;54731;42.600;23.476;2022-11-20T12:03:24;14.25;71.67
67942;SHT31;54731;42.600;23.476;2022-11-20T12:06:05;14.10;70.50
67942;SHT31;54731;42.600;23.476;2022-11-20T12:08:55;13.93;69.96
67942;SHT31;54731;42.600;23.476;2022-11-20T12:11:38;13.74;71.69
67942;SHT31;54731;42.600;23.476;2022-11-20T12:14:18;13.62;72.26
67942;SHT31;54731;42.600;23.476;2022-11-20T12:16:45;13.45;73.20
67942;SHT31;54731;42.600;23.476;2022-11-20T12:19:12;13.40;73.54
67942;SHT31;54731;42.600;23.476;2022-11-20T12:21:55;13.38;73.28
67942;SHT31;54731;42.600;23.476;2022-11-20T12:43:58;13.19;76.88
67942;SHT31;54731;42.600;23.476;2022-11-20T12:46:44;13.15;77.60
67942;SHT31;54731;42.600;23.476;2022-11-20T12:52:17;13.23;79.13
67942;SHT31;54731;42.600;23.476;2022-11-20T12:57:50;13.16;82.78
67942;SHT31;54731;42.600;23.476;2022-11-20T13:00:23;13.02;83.53
67942;SHT31;54731;42.600;23.476;2022-11-20T13:03:16;12.94;84.15
67942;SHT31;54731;42.600;23.476;2022-11-20T13:08:36;12.96;82.85
67942;SHT31;54731;42.600;23.476;2022-11-20T13:11:24;12.96;83.10
67942;SHT31;54731;42.600;23.476;2022-11-20T13:16:36;13.14;81.83
67942;SHT31;54731;42.600;23.476;2022-11-20T13:19:04;13.19;80.75
67942;SHT31;54731;42.600;23.476;2022-11-20T13:21:42;13.19;80.95
67942;SHT31;54731;42.600;23.476;2022-11-20T13:24:21;13.08;81.78
67942;SHT31;54731;42.600;23.476;2022-11-20T13:26:46;12.99;82.40
67942;SHT31;54731;42.600;23.476;2022-11-20T13:29:17;12.99;81.96
67942;SHT31;54731;42.600;23.476;2022-11-20T13:31:45;13.12;80.96
67942;SHT31;54731;42.600;23.476;2022-11-20T13:34:23;13.20;81.35
67942;SHT31;54731;42.600;23.476;2022-11-20T13:36:51;13.22;81.80
67942;SHT31;54731;42.600;23.476;2022-11-20T13:39:27;13.15;82.25
67942;SHT31;54731;42.600;23.476;2022-11-20T13:42:00;13.09;82.83
67942;SHT31;54731;42.600;23.476;2022-11-20T13:44:46;13.12;82.58
67942;SHT31;54731;42.600;23.476;2022-11-20T13:47:23;13.12;82.48
67942;SHT31;54731;42.600;23.476;2022-11-20T13:49:51;13.18;82.35
67942;SHT31;54731;42.600;23.476;2022-11-20T13:55:33;13.18;82.63
67942;SHT31;54731;42.600;23.476;2022-11-20T14:00:28;13.01;81.74
67942;SHT31;54731;42.600;23.476;2022-11-20T14:05:35;12.92;81.14
67942;SHT31;54731;42.600;23.476;2022-11-20T14:08:03;12.91;80.94
67942;SHT31;54731;42.600;23.476;2022-11-20T14:10:29;12.88;79.96
67942;SHT31;54731;42.600;23.476;2022-11-20T14:12:55;12.87;79.37
67942;SHT31;54731;42.600;23.476;2022-11-20T14:15:33;12.81;79.13
67942;SHT31;54731;42.600;23.476;2022-11-20T14:17:59;12.83;80.36
67942;SHT31;54731;42.600;23.476;2022-11-20T14:20:29;12.77;80.86
67942;SHT31;54731;42.600;23.476;2022-11-20T14:22:55;12.71;81.10
67942;SHT31;54731;42.600;23.476;2022-11-20T14:25:25;12.57;81.07
67942;SHT31;54731;42.600;23.476;2022-11-20T14:28:01;12.58;80.97
67942;SHT31;54731;42.600;23.476;2022-11-20T14:30:36;12.63;81.13
67942;SHT31;54731;42.600;23.476;2022-11-20T14:33:03;12.63;80.70
67942;SHT31;54731;42.600;23.476;2022-11-20T14:35:31;12.65;80.93
67942;SHT31;54731;42.600;23.476;2022-11-20T14:38:00;12.61;80.60
67942;SHT31;54731;42.600;23.476;2022-11-20T14:40:31;12.58;80.98
67942;SHT31;54731;42.600;23.476;2022-11-20T14:42:58;12.57;81.30
67942;SHT31;54731;42.600;23.476;2022-11-20T14:45:25;12.54;81.52
67942;SHT31;54731;42.600;23.476;2022-11-20T14:47:52;12.55;81.35
67942;SHT31;54731;42.600;23.476;2022-11-20T14:50:28;12.58;81.05
67942;SHT31;54731;42.600;23.476;2022-11-20T14:52:59;12.55;80.90
67942;SHT31;54731;42.600;23.476;2022-11-20T14:55:36;12.55;80.76
67942;SHT31;54731;42.600;23.476;2022-11-20T14:58:04;12.53;80.85
67942;SHT31;54731;42.600;23.476;2022-11-20T15:00:31;12.54;80.75
67942;SHT31;54731;42.600;23.476;2022-11-20T15:02:57;12.44;80.65
67942;SHT31;54731;42.600;23.476;2022-11-20T15:05:25;12.44;80.80
67942;SHT31;54731;42.600;23.476;2022-11-20T15:08:06;12.41;80.93
67942;SHT31;54731;42.600;23.476;2022-11-20T15:10:32;12.41;80.93
67942;SHT31;54731;42.600;23.476;2022-11-20T15:13:03;12.40;79.86
67942;SHT31;54731;42.600;23.476;2022-11-20T15:15:33;12.37;80.12
67942;SHT31;54731;42.600;23.476;2022-11-20T15:18:00;12.30;80.54
67942;SHT31;54731;42.600;23.476;2022-11-20T15:20:28;12.30;80.51
67942;SHT31;54731;42.600;23.476;2022-11-20T15:22:54;12.27;80.44
67942;SHT31;54731;42.600;23.476;2022-11-20T15:25:19;12.27;80.65
67942;SHT31;54731;42.600;23.476;2022-11-20T15:27:48;12.27;80.83
67942;SHT31;54731;42.600;23.476;2022-11-20T15:30:18;12.23;80.98
67942;SHT31;54731;42.600;23.476;2022-11-20T15:32:44;12.23;81.15
67942;SHT31;54731;42.600;23.476;2022-11-20T15:35:10;12.23;81.45
67942;SHT31;54731;42.600;23.476;2022-11-20T15:37:38;12.23;81.46
67942;SHT31;54731;42.600;23.476;2022-11-20T15:40:05;12.24;81.12
67942;SHT31;54731;42.600;23.476;2022-11-20T15:42:31;12.24;81.39
67942;SHT31;54731;42.600;23.476;2022-11-20T15:44:56;12.19;81.34
67942;SHT31;54731;42.600;23.476;2022-11-20T15:47:26;12.10;81.59
67942;SHT31;54731;42.600;23.476;2022-11-20T15:49:52;12.03;81.47
67942;SHT31;54731;42.600;23.476;2022-11-20T15:52:18;12.02;80.93
67942;SHT31;54731;42.600;23.476;2022-11-20T15:54:43;11.96;79.82
67942;SHT31;54731;42.600;23.476;2022-11-20T15:57:08;11.94;79.65
67942;SHT31;54731;42.600;23.476;2022-11-20T15:59:34;11.89;80.11
67942;SHT31;54731;42.600;23.476;2022-11-20T16:01:59;11.80;80.16
67942;SHT31;54731;42.600;23.476;2022-11-20T16:04:24;11.83;80.27
67942;SHT31;54731;42.600;23.476;2022-11-20T16:06:50;11.80;80.08
67942;SHT31;54731;42.600;23.476;2022-11-20T16:09:15;11.79;79.64
67942;SHT31;54731;42.600;23.476;2022-11-20T16:11:40;11.78;79.79
67942;SHT31;54731;42.600;23.476;2022-11-20T16:14:06;11.62;80.29
67942;SHT31;54731;42.600;23.476;2022-11-20T16:16:36;11.58;80.26
67942;SHT31;54731;42.600;23.476;2022-11-20T16:19:02;11.58;79.87
67942;SHT31;54731;42.600;23.476;2022-11-20T16:21:27;11.51;80.38
67942;SHT31;54731;42.600;23.476;2022-11-20T16:23:53;11.52;80.26
67942;SHT31;54731;42.600;23.476;2022-11-20T16:26:18;11.48;79.29